CheckWX is a tool to help pilots better visualize weather data.  It is not intended as a substitute for an official pre-flight weather briefing.

21:06:22 UTC

HTZA METAR
Abeid Amani Karume International Airport
Zanzibar, Tanzania
Current

2 hours ago

HTZA 231900Z 00000KT 9999 FEW018 SCT070 28/25 Q1011 NOSIG
Observed
Feb-23 @ 19:00 UTC
Visibility
10,000+ meters
Flight Rules
VFR
Cloud Levels
  • Few at 1,800' AGL
  • Scattered at 7,000' AGL
Temperature
28°C / 82°F
Dewpoint
25°C / 77°F
Humidity
84%
Altimeter
29.85" Hg
Pressure
1010.92 hPa
Previous

3 hours ago

HTZA 231800Z 10003KT 9999 FEW018 BKN070 28/24 Q1010 NOSIG
Observed
Feb-23 @ 18:00 UTC
Wind
  • 100° at 3 KTS
Visibility
10,000+ meters
Flight Rules
VFR
Cloud Levels
  • Few at 1,800' AGL
  • Broken at 7,000' AGL
Temperature
28°C / 82°F
Dewpoint
24°C / 75°F
Humidity
79%
Altimeter
29.82" Hg
Pressure
1009.92 hPa
Previous

4 hours ago

HTZA 231700Z 08003KT 9999 FEW020 29/24 Q1010 NOSIG
Observed
Feb-23 @ 17:00 UTC
Wind
  • 080° at 3 KTS
Visibility
10,000+ meters
Flight Rules
VFR
Cloud Levels
  • Few at 2,000' AGL
Temperature
29°C / 84°F
Dewpoint
24°C / 75°F
Humidity
74%
Altimeter
29.82" Hg
Pressure
1009.92 hPa